This is the latest recevied weather packets stored in our database for station/object CA3EAP-13. If no packets are shown the sender has not sent any weather packets the latest 10 day(s).
| Time | Temp. | Humidity | Pressure | Rain* | Wind** | Luminosity | Snow |
|---|---|---|---|---|---|---|---|
| 1777842905 | 23.89° C | 28% | 1013.5 hPa | - | - | - | - |
| 1777842305 | 23.89° C | 27% | 1013.4 hPa | - | - | - | - |
| 1777841705 | 23.89° C | 27% | 1013.4 hPa | - | - | - | - |
| 1777841105 | 23.89° C | 25% | 1013.2 hPa | - | - | - | - |
| 1777840505 | 23.89° C | 25% | 1013.1 hPa | - | - | - | - |
| 1777839905 | 23.89° C | 26% | 1013.3 hPa | - | - | - | - |
| 1777839305 | 23.89° C | 23% | 1013 hPa | - | - | - | - |
| 1777838705 | 24.44° C | 23% | 1012.8 hPa | - | - | - | - |
| 1777838105 | 24.44° C | 24% | 1012.9 hPa | - | - | - | - |
| 1777837505 | 24.44° C | 27% | 1012.9 hPa | - | - | - | - |
| 1777836905 | 24.44° C | 28% | 1012.9 hPa | - | - | - | - |
| 1777836305 | 25° C | 27% | 1012.8 hPa | - | - | - | - |
| 1777835705 | 25° C | 29% | 1012.9 hPa | - | - | - | - |
| 1777835105 | 25° C | 28% | 1012.8 hPa | - | - | - | - |
| 1777834504 | 25° C | 29% | 1012.8 hPa | - | - | - | - |
| 1777833905 | 25° C | 29% | 1012.8 hPa | - | - | - | - |
| 1777833305 | 24.44° C | 30% | 1012.9 hPa | - | - | - | - |
| 1777832705 | 24.44° C | 32% | 1013 hPa | - | - | - | - |
| 1777832105 | 24.44° C | 32% | 1012.8 hPa | - | - | - | - |
| 1777831505 | 24.44° C | 31% | 1012.8 hPa | - | - | - | - |
| 1777830905 | 24.44° C | 31% | 1012.7 hPa | - | - | - | - |
| 1777830304 | 24.44° C | 30% | 1012.8 hPa | - | - | - | - |
| 1777829704 | 24.44° C | 30% | 1013.1 hPa | - | - | - | - |
| 1777829105 | 23.89° C | 31% | 1013.4 hPa | - | - | - | - |
| 1777828505 | 23.89° C | 31% | 1013.6 hPa | - | - | - | - |
* Rain since midnight (hover to see other rain measurements)
** Current wind speed in m/s (hover to see current wind gust speed)